»·PEaware :: N704YA KGEG-CYCG

N704YA :: KGEG-CYCG

FLIGHT INFORMATION

Flight Status: Arrived
Operator: Privately registered:
United States
More flights under this callsign
Pilot: Wayne R. (17783)
Aircraft: CESSNA 152 AEROBAT
(C152)
More flights by this aircraft type
Origin: KGEG Spokane Intl
United States
Destination: CYCG Castlegar
Canada
More flights between these airports :: More routes between these airports
Route:
File this flight plan on PilotEdge
Remarks:
Altitude:
(Current/Filed)
6,500ft
Speed:
(Current/Filed)
100kts
Departed: 07-Nov-20 02:56 PM
Arrived: 07-Nov-20 04:20 PM
Distance/Time
Traveled:
100nm/1:23
Distance/Time
To Go:
Arrived

Flight Plot

Page will automatically refresh every two minutes.

Flight plan parsing failed; only flown route is shown


Map Options




Map Legend


Flown Route
Filed Route
Departure Airport
Arrival Airport
Navaid (VOR, NDB)
Fix

Horizontal Profiles

Position Reports

Time Latitude Longitude Heading Altitude Ground
Speed
07-Nov-20 14:54 47.852332 -117.696972 350 4653ft 91kts
07-Nov-20 14:55 47.876193 -117.708331 344 4939ft 91kts
07-Nov-20 14:56 47.898222 -117.725984 326 5289ft 105kts
07-Nov-20 14:57 47.919581 -117.750865 342 5555ft 91kts
07-Nov-20 14:59 47.939621 -117.777966 324 5689ft 102kts
07-Nov-20 15:00 47.957439 -117.811686 312 5940ft 109kts
07-Nov-20 15:01 47.971865 -117.852986 310 6078ft 113kts
07-Nov-20 15:02 47.989540 -117.889505 321 6232ft 106kts
07-Nov-20 15:03 48.008179 -117.925386 316 6320ft 107kts
07-Nov-20 15:04 48.026737 -117.958912 327 6328ft 101kts
07-Nov-20 15:05 48.049389 -117.983808 334 6183ft 99kts
07-Nov-20 15:06 48.073260 -118.005147 333 6208ft 103kts
07-Nov-20 15:07 48.097847 -118.024804 343 6181ft 96kts
07-Nov-20 15:08 48.121635 -118.046993 330 6266ft 102kts
07-Nov-20 15:09 48.143053 -118.071134 341 6204ft 93kts
07-Nov-20 15:10 48.165097 -118.093539 340 5992ft 94kts
07-Nov-20 15:11 48.188642 -118.108334 0 5656ft 87kts
07-Nov-20 15:12 48.211825 -118.102887 356 5288ft 87kts
07-Nov-20 15:13 48.234687 -118.118248 341 5100ft 88kts
07-Nov-20 15:14 48.256128 -118.131885 349 5174ft 82kts
07-Nov-20 15:15 48.264387 -118.135828 351 5229ft 82kts
07-Nov-20 15:16 48.264387 -118.135828 351 5229ft 82kts
07-Nov-20 15:16 48.264387 -118.135828 351 5229ft 82kts
07-Nov-20 15:17 48.264387 -118.135828 351 5229ft 82kts
07-Nov-20 15:18 48.264387 -118.135828 351 5229ft 82kts
07-Nov-20 15:19 48.264387 -118.135828 351 5229ft 82kts
07-Nov-20 15:20 48.264387 -118.135828 351 5229ft 82kts
07-Nov-20 15:21 48.264387 -118.135828 351 5229ft 82kts
07-Nov-20 15:22 48.264387 -118.135828 351 5229ft 82kts
07-Nov-20 15:23 48.264387 -118.135828 351 5229ft 82kts
07-Nov-20 15:24 48.264387 -118.135828 351 5229ft 82kts
07-Nov-20 15:25 48.264387 -118.135828 351 5229ft 82kts
07-Nov-20 15:26 48.264387 -118.135828 351 5229ft 82kts
07-Nov-20 15:27 48.264387 -118.135828 351 5229ft 82kts
07-Nov-20 15:28 48.264387 -118.135828 351 5229ft 82kts
07-Nov-20 15:29 48.264387 -118.135828 351 5229ft 82kts
07-Nov-20 15:30 48.264387 -118.135828 351 5229ft 82kts
07-Nov-20 15:31 48.264387 -118.135828 351 5229ft 82kts
07-Nov-20 15:32 48.264387 -118.135828 351 5229ft 82kts
07-Nov-20 15:33 48.264387 -118.135828 351 5229ft 82kts
07-Nov-20 15:34 48.264387 -118.135828 351 5229ft 82kts
07-Nov-20 15:35 48.266697 -118.136891 343 5198ft 91kts
07-Nov-20 15:36 48.289414 -118.148920 331 5537ft 88kts
07-Nov-20 15:37 48.309156 -118.170787 346 5784ft 91kts
07-Nov-20 15:38 48.333840 -118.165468 24 5992ft 91kts
07-Nov-20 15:39 48.356155 -118.147119 16 6182ft 91kts
07-Nov-20 15:40 48.381448 -118.149290 359 6343ft 93kts
07-Nov-20 15:41 48.406167 -118.139347 10 6513ft 92kts
07-Nov-20 15:42 48.431581 -118.133084 7 6644ft 94kts
07-Nov-20 15:43 48.458932 -118.127853 7 6515ft 103kts
07-Nov-20 15:44 48.486022 -118.115112 31 6376ft 102kts
07-Nov-20 15:45 48.506243 -118.085042 30 6190ft 103kts
07-Nov-20 15:46 48.532074 -118.070143 352 6104ft 102kts
07-Nov-20 15:47 48.559915 -118.077800 358 6032ft 101kts
07-Nov-20 15:48 48.587743 -118.072193 13 5969ft 101kts
07-Nov-20 15:49 48.614807 -118.061009 19 5887ft 103kts
07-Nov-20 15:50 48.640437 -118.045377 26 5991ft 98kts
07-Nov-20 15:51 48.663530 -118.023492 34 6123ft 98kts
07-Nov-20 15:52 48.684742 -117.996792 46 6235ft 100kts
07-Nov-20 15:53 48.704840 -117.966573 47 6254ft 103kts
07-Nov-20 15:54 48.719371 -117.929186 69 6259ft 103kts
07-Nov-20 15:55 48.731342 -117.889584 66 6264ft 104kts
07-Nov-20 15:56 48.753886 -117.865324 15 6274ft 102kts
07-Nov-20 15:57 48.781611 -117.854766 17 6296ft 102kts
07-Nov-20 15:58 48.806692 -117.835762 38 6340ft 101kts
07-Nov-20 15:59 48.828650 -117.808212 33 6342ft 105kts
07-Nov-20 16:00 48.853156 -117.782711 41 6332ft 107kts
07-Nov-20 16:01 48.877039 -117.754581 30 6311ft 107kts
07-Nov-20 16:02 48.901823 -117.727514 45 6205ft 110kts
07-Nov-20 16:03 48.922454 -117.692765 39 6075ft 116kts
07-Nov-20 16:04 48.945732 -117.657914 40 5709ft 116kts
07-Nov-20 16:05 48.971419 -117.628191 27 5392ft 117kts
07-Nov-20 16:06 49.000843 -117.608358 22 5088ft 115kts
07-Nov-20 16:07 49.031978 -117.600483 5 4805ft 112kts
07-Nov-20 16:08 49.062743 -117.600031 343 4480ft 110kts
07-Nov-20 16:09 49.087674 -117.625226 317 4300ft 108kts
07-Nov-20 16:10 49.103337 -117.664124 292 4117ft 108kts
07-Nov-20 16:11 49.116315 -117.704173 303 4075ft 105kts
07-Nov-20 16:12 49.138581 -117.730534 355 3763ft 105kts
07-Nov-20 16:13 49.161183 -117.720969 21 3527ft 103kts
07-Nov-20 16:14 49.185873 -117.700534 32 3403ft 92kts
07-Nov-20 16:15 49.207948 -117.679588 29 3443ft 93kts
07-Nov-20 16:16 49.229855 -117.658431 35 3452ft 93kts
07-Nov-20 16:17 49.251636 -117.636691 27 3384ft 93kts
07-Nov-20 16:18 49.276014 -117.626376 0 2166ft 78kts
07-Nov-20 16:19 49.293276 -117.631765 346 1619ft 40kts

Navigation Log

Ident Type
Flight plan parsing failed, navigation log unavailable